PWSweather.com
Personal Weather Stations
Station Observations
SWHWX01
St AppolinardFR 38160

St AppolinardFR 38160

Lat: 45.191, Lon: 5.268

Elevation: 1460

Station Type: Davis Vantage Pro2 Plus

Latest ConditionsUpdated 7:30:03 PM GMT+01:01 Sunday, Jan 26, 2020
Currently Today's Max Today's Min Today's Average
Temperature 44.9°F7.2°C 47.8°F8.8°C 42.8°F6.0°C 45.1°F7.3°C
Dew Point 42.4°F5.8°C 44.4°F6.9°C 40.6°F4.8°C 42.3°F5.7°C
Winds 4.2 mph WSW6.8 kmh WSW 4.9 mph -7.9 kmh - - 1.4 mph 2.3 kmh
Wind Gusts 6.0 mph9.7 kmh 7.0 mph11.3 kmh - -
Humidity 91% 94% 85% 90%
Pressure 30.14 in1020.7 mb 30.14 in1020.7 mb 30.09 in1019.0 mb -
Precipitation - 0.02 in0.5 mm - -
Hour Temp Dew Point Humidity Winds Wind Gusts Pressure Precip Precip Rate Daily Precip Total
07:30 PM 44.9°F7.2°C 42.4°F5.8°C 91% 4.2 mph WSW6.8 kmh WSW 6.0 mph9.7 kmh 30.14 in1020.7 mb - 0.00 in0.0 mm 0.02 in0.5 mm
07:00 PM 45.2°F7.3°C 42.7°F5.9°C 91% 2.4 mph WSW3.9 kmh WSW 7.0 mph11.3 kmh 30.13 in1020.3 mb - 0.00 in0.0 mm 0.02 in0.5 mm
06:30 PM 45.2°F7.3°C 42.8°F6.0°C 91% 3.0 mph WSW4.8 kmh WSW 3.0 mph4.8 kmh 30.12 in1020.0 mb - 0.00 in0.0 mm 0.02 in0.5 mm
06:00 PM 45.2°F7.3°C 42.5°F5.8°C 90% 2.4 mph WSW3.9 kmh WSW 4.0 mph6.4 kmh 30.12 in1020.0 mb - 0.00 in0.0 mm 0.02 in0.5 mm
05:30 PM 46.1°F7.8°C 43.0°F6.1°C 89% 1.8 mph WSW2.9 kmh WSW 2.0 mph3.2 kmh 30.11 in1019.6 mb - 0.00 in0.0 mm 0.02 in0.5 mm
05:00 PM 46.9°F8.3°C 43.5°F6.4°C 88% 0.1 mph WSW0.2 kmh WSW -- 30.11 in1019.6 mb - 0.00 in0.0 mm 0.02 in0.5 mm
04:30 PM 47.8°F8.8°C 44.4°F6.9°C 88% 1.2 mph WSW1.9 kmh WSW 3.0 mph4.8 kmh 30.11 in1019.6 mb - 0.00 in0.0 mm 0.02 in0.5 mm
04:00 PM 47.5°F8.6°C 43.8°F6.6°C 87% 2.4 mph WSW3.9 kmh WSW 6.0 mph9.7 kmh 30.11 in1019.6 mb - 0.00 in0.0 mm 0.02 in0.5 mm
03:30 PM 47.6°F8.7°C 43.3°F6.3°C 85% 3.9 mph WSW6.3 kmh WSW 6.0 mph9.7 kmh 30.11 in1019.6 mb - 0.00 in0.0 mm 0.02 in0.5 mm
03:00 PM 47.5°F8.6°C 43.5°F6.4°C 86% 3.7 mph WSW6.0 kmh WSW 6.0 mph9.7 kmh 30.11 in1019.6 mb - 0.00 in0.0 mm 0.02 in0.5 mm
02:30 PM 47.2°F8.4°C 43.5°F6.4°C 87% 4.0 mph WSW6.4 kmh WSW 5.0 mph8.0 kmh 30.11 in1019.6 mb - 0.00 in0.0 mm 0.02 in0.5 mm
02:00 PM 47.2°F8.4°C 43.2°F6.2°C 86% 4.9 mph WSW7.9 kmh WSW 6.0 mph9.7 kmh 30.12 in1020.0 mb - 0.00 in0.0 mm 0.02 in0.5 mm
01:30 PM 46.8°F8.2°C 43.7°F6.5°C 89% 2.6 mph WSW4.2 kmh WSW 4.0 mph6.4 kmh 30.12 in1020.0 mb - 0.00 in0.0 mm 0.02 in0.5 mm
01:00 PM 45.7°F7.6°C 42.6°F5.9°C 89% 2.4 mph WSW3.9 kmh WSW 4.0 mph6.4 kmh 30.12 in1020.0 mb - 0.00 in0.0 mm 0.02 in0.5 mm
12:30 PM 45.1°F7.3°C 42.9°F6.1°C 92% 1.6 mph WSW2.6 kmh WSW 2.0 mph3.2 kmh 30.13 in1020.3 mb - 0.00 in0.0 mm 0.02 in0.5 mm
12:00 PM 44.3°F6.8°C 42.4°F5.8°C 93% 1.3 mph WSW2.1 kmh WSW 2.0 mph3.2 kmh 30.14 in1020.7 mb - 0.00 in0.0 mm 0.02 in0.5 mm
11:30 AM 43.7°F6.5°C 41.8°F5.4°C 93% 2.4 mph WSW3.9 kmh WSW 3.0 mph4.8 kmh 30.14 in1020.7 mb - 0.00 in0.0 mm 0.02 in0.5 mm
11:00 AM 43.8°F6.6°C 41.9°F5.5°C 93% Calm Calm -- 30.13 in1020.3 mb - 0.00 in0.0 mm 0.02 in0.5 mm
10:30 AM 43.7°F6.5°C 41.8°F5.4°C 93% Calm Calm -- 30.13 in1020.3 mb - 0.00 in0.0 mm 0.02 in0.5 mm
10:00 AM 43.4°F6.3°C 41.8°F5.4°C 94% Calm Calm -- 30.12 in1020.0 mb - 0.00 in0.0 mm 0.02 in0.5 mm
09:30 AM 43.0°F6.1°C 41.1°F5.1°C 93% Calm Calm -- 30.12 in1020.0 mb - 0.00 in0.0 mm 0.02 in0.5 mm
09:00 AM 43.0°F6.1°C 41.1°F5.1°C 93% Calm Calm -- 30.11 in1019.6 mb - 0.00 in0.0 mm 0.02 in0.5 mm
08:30 AM 42.8°F6.0°C 40.6°F4.8°C 92% Calm Calm -- 30.11 in1019.6 mb - 0.01 in0.3 mm 0.02 in0.5 mm
08:00 AM 44.0°F6.7°C 41.0°F5.0°C 89% 0.6 mph WSW1.0 kmh WSW 1.0 mph1.6 kmh 30.10 in1019.3 mb - 0.01 in0.3 mm 0.01 in0.3 mm
07:30 AM 45.2°F7.3°C 41.6°F5.3°C 87% 1.7 mph WSW2.7 kmh WSW 2.0 mph3.2 kmh 30.09 in1019.0 mb - 0.00 in0.0 mm 0.00 in0.0 mm
07:00 AM 44.2°F6.8°C 40.8°F4.9°C 88% Calm Calm -- 30.09 in1019.0 mb - 0.00 in0.0 mm 0.00 in0.0 mm
06:30 AM 44.9°F7.2°C 42.1°F5.6°C 90% 2.6 mph WSW4.2 kmh WSW 3.0 mph4.8 kmh 30.09 in1019.0 mb - 0.00 in0.0 mm 0.00 in0.0 mm
06:00 AM 44.8°F7.1°C 42.6°F5.9°C 92% 2.3 mph WSW3.7 kmh WSW 3.0 mph4.8 kmh 30.09 in1019.0 mb - 0.00 in0.0 mm 0.00 in0.0 mm
05:30 AM 44.5°F6.9°C 42.6°F5.9°C 93% 2.1 mph WSW3.4 kmh WSW 3.0 mph4.8 kmh 30.09 in1019.0 mb - 0.00 in0.0 mm 0.00 in0.0 mm
05:00 AM 44.1°F6.7°C 42.0°F5.6°C 92% 1.4 mph WSW2.3 kmh WSW 2.0 mph3.2 kmh 30.09 in1019.0 mb - 0.00 in0.0 mm 0.00 in0.0 mm
04:30 AM 44.6°F7.0°C 42.1°F5.6°C 91% Calm Calm -- 30.10 in1019.3 mb - 0.00 in0.0 mm 0.00 in0.0 mm
04:00 AM 45.1°F7.3°C 42.6°F5.9°C 91% Calm Calm -- 30.10 in1019.3 mb - 0.00 in0.0 mm 0.00 in0.0 mm
03:30 AM 44.5°F6.9°C 41.7°F5.4°C 90% Calm Calm -- 30.11 in1019.6 mb - 0.00 in0.0 mm 0.00 in0.0 mm
03:00 AM 44.9°F7.2°C 42.1°F5.6°C 90% Calm Calm -- 30.11 in1019.6 mb - 0.00 in0.0 mm 0.00 in0.0 mm
02:30 AM 45.1°F7.3°C 42.4°F5.8°C 90% Calm Calm -- 30.11 in1019.6 mb - 0.00 in0.0 mm 0.00 in0.0 mm
02:00 AM 44.8°F7.1°C 42.1°F5.6°C 90% Calm Calm -- 30.11 in1019.6 mb - 0.00 in0.0 mm 0.00 in0.0 mm
01:30 AM 44.2°F6.8°C 41.5°F5.3°C 90% Calm Calm -- 30.11 in1019.6 mb - 0.00 in0.0 mm 0.00 in0.0 mm
01:00 AM 44.4°F6.9°C 42.0°F5.6°C 91% Calm Calm -- 30.12 in1020.0 mb - 0.00 in0.0 mm 0.00 in0.0 mm
12:30 AM 44.2°F6.8°C 41.2°F5.1°C 89% Calm Calm -- 30.12 in1020.0 mb - 0.00 in0.0 mm 0.00 in0.0 mm
12:00 AM 45.4°F7.4°C 42.6°F5.9°C 90% Calm Calm -- 30.13 in1020.3 mb - 0.00 in0.0 mm 0.00 in0.0 mm